KN1X Weather Reports


Display with metric or nautical units.
time (UTC)temp
F
wind
direction
speed
MPH
gust
MPH
rain 1hr
in
rain 24hr
in
rain mn
in
humidity
%
barometer
mb
20210925120016 59 0.0 1.0 0.00 0.00 0.00 69 1012.6
20210925115017 59 0.0 0.0 0.00 0.00 0.00 71 1012.5
20210925114016 58 0.0 1.0 0.00 0.00 0.00 71 1012.4
20210925113016 58 0.0 0.0 0.00 0.00 0.00 72 1012.4
20210925112016 59 0.0 0.0 0.00 0.00 0.00 72 1012.3
20210925111016 59 0.0 0.0 0.00 0.00 0.00 71 1012.2
20210925110016 60 0.0 0.0 0.00 0.00 0.00 70 1012.3
20210925105016 61 0.0 0.0 0.00 0.00 0.00 67 1012.1
20210925104016 62 0.0 1.0 0.00 0.00 0.00 65 1012.2
20210925103016 62 0.0 1.0 0.00 0.00 0.00 64 1012.1
20210925102016 62 0.0 0.0 0.00 0.00 0.00 63 1012.2
20210925101016 62 0.0 0.0 0.00 0.00 0.00 63 1012.2
20210925100016 62 0.0 1.0 0.00 0.00 0.00 64 1012.2
20210925095016 62 0.0 1.0 0.00 0.00 0.00 64 1012.2
20210925094016 61 0.0 1.0 0.00 0.00 0.00 65 1012.2
20210925093016 62 0.0 0.0 0.00 0.00 0.00 65 1012.2
20210925092016 62 0.0 0.0 0.00 0.00 0.00 65 1012.3
20210925091015 63 0.0 0.0 0.00 0.00 0.00 64 1012.3
20210925090016 63 0.0 0.0 0.00 0.00 0.00 63 1012.3
20210925085015 63 0.0 0.0 0.00 0.00 0.00 63 1012.2
20210925084015 63 0.0 1.0 0.00 0.00 0.00 64 1012.1
20210925083017 63 0.0 1.0 0.00 0.00 0.00 65 1012.1
20210925082015 63 0.0 1.0 0.00 0.00 0.00 67 1012.0
20210925081016 64 0.0 1.0 0.00 0.00 0.00 68 1012.1
20210925080015 64 0.0 1.0 0.00 0.00 0.00 69 1011.9
20210925075016 64 0.0 1.0 0.00 0.00 0.00 71 1012.0
20210925074016 63 0.0 1.0 0.00 0.00 0.00 73 1011.9
20210925073016 63 0.0 1.0 0.00 0.00 0.00 73 1011.9
20210925072015 63 0.0 0.0 0.00 0.00 0.00 73 1011.8
20210925071016 64 0.0 1.0 0.00 0.00 0.00 74 1011.8
20210925070016 64 0.0 1.0 0.00 0.00 0.00 74 1011.7
20210925065016 64 0.0 0.0 0.00 0.00 0.00 72 1011.7
20210925064016 65 0.0 1.0 0.00 0.00 0.00 71 1011.5
20210925063016 66 0.0 1.0 0.00 0.00 0.00 70 1011.4
20210925062016 66 0.0 0.0 0.00 0.00 0.00 70 1011.3
20210925061016 66 0.0 1.0 0.00 0.00 0.00 69 1011.2
20210925060016 66 0.0 1.0 0.00 0.00 0.00 68 1011.1
20210925055016 66 0.0 1.0 0.00 0.00 0.00 68 1011.4
20210925054016 67 0.0 1.0 0.00 0.00 0.00 66 1011.4
20210925053016 67 0.0 1.0 0.00 0.00 0.00 66 1011.5
20210925052016 67 0.0 1.0 0.00 0.00 0.00 66 1011.3
20210925051016 68 0.0 1.0 0.00 0.00 0.00 66 1011.3
20210925050016 68 0.0 1.0 0.00 0.00 0.00 65 1011.2
20210925045016 68 0.0 1.0 0.00 0.00 0.00 65 1011.2
20210925044016 68 0.0 1.0 0.00 0.00 0.00 65 1011.1
20210925043015 68 0.0 1.0 0.00 0.00 0.00 64 1011.2
20210925042016 69 0.0 1.0 0.00 0.00 0.00 63 1011.1
20210925041016 69 0.0 1.0 0.00 0.00 0.00 62 1011.1
20210925040015 69 0.0 1.0 0.00 0.00 0.00 62 1011.1
20210925035016 69 0.0 1.0 0.00 0.00 0.00 62 1011.1
20210925034016 69 0.0 1.0 0.00 0.00 0.00 62 1011.1
20210925033015 69 0.0 1.0 0.00 0.00 0.00 62 1010.9
20210925032016 69 0.0 1.0 0.00 0.00 0.00 62 1010.9
20210925031016 69 0.0 1.0 0.00 0.00 0.00 62 1010.8
20210925030015 69 0.0 1.0 0.00 0.00 0.00 62 1010.7
20210925025015 69 0.0 1.0 0.00 0.00 0.00 63 1010.6
20210925024015 69 0.0 1.0 0.00 0.00 0.00 62 1010.6
20210925023015 69 0.0 1.0 0.00 0.00 0.00 62 1010.6
20210925022015 69 0.0 1.0 0.00 0.00 0.00 63 1010.6
20210925021015 70 0.0 0.0 0.00 0.00 0.00 64 1010.6
20210925020016 70 0.0 1.0 0.00 0.00 0.00 64 1010.6
20210925015015 70 0.0 1.0 0.00 0.00 0.00 64 1010.6
20210925014015 71 0.0 0.0 0.00 0.00 0.00 63 1010.7
20210925013016 71 0.0 1.0 0.00 0.00 0.00 63 1010.7
20210925012015 71 0.0 1.0 0.00 0.00 0.00 62 1010.7
20210925011015 72 0.0 1.0 0.00 0.00 0.00 61 1010.8
20210925010015 72 0.0 1.0 0.00 0.00 0.00 60 1010.9
20210925005017 73 0.0 1.0 0.00 0.00 0.00 58 1010.9
20210925004016 74 0.0 1.0 0.00 0.00 0.00 56 1011.0
20210925003015 75 0.0 1.0 0.00 0.00 0.00 54 1011.1
20210925002015 78 0.0 1.0 0.00 0.00 0.00 47 1011.2
20210925001015 80 0.0 2.0 0.00 0.00 0.00 47 1011.4
20210925000015 82 0.0 1.0 0.00 0.00 0.00 43 1011.5
20210924235015 82 0.0 1.0 0.00 0.00 0.00 44 1011.6
20210924234015 82 0.0 1.0 0.00 0.00 0.00 43 1011.6
20210924233015 81 0.0 1.0 0.00 0.00 0.00 46 1011.5
20210924232015 79 0.0 1.0 0.00 0.00 0.00 50 1011.6
20210924231015 78 0.0 0.0 0.00 0.00 0.00 51 1011.7
20210924230015 76 0.0 1.0 0.00 0.00 0.00 52 1011.7
20210924225015 76 0.0 2.0 0.00 0.00 0.00 53 1011.8
20210924224015 76 0.0 2.0 0.00 0.00 0.00 52 1011.9
20210924223015 75 0.0 2.0 0.00 0.00 0.00 53 1011.9
20210924222015 75 0.0 2.0 0.00 0.00 0.00 53 1011.9
20210924221015 75 0 1.0 2.0 0.00 0.00 0.00 54 1012.0
20210924220016 74 0.0 3.0 0.00 0.00 0.00 55 1012.2
20210924215015 74 0.0 2.0 0.00 0.00 0.00 53 1012.3
20210924214018 73 0.0 2.0 0.00 0.00 0.00 55 1012.4
20210924213017 73 0.0 1.0 0.00 0.00 0.00 57 1012.6
20210924212017 72 0.0 3.0 0.00 0.00 0.00 59 1012.8
20210924211017 72 0.0 1.0 0.00 0.00 0.00 61 1012.9
20210924210017 71 248 1.0 4.0 0.00 0.00 0.00 59 1013.1
20210924205017 71 248 1.0 4.0 0.00 0.00 0.00 61 1013.3
20210924204017 70 225 1.0 5.0 0.00 0.00 0.00 61 1013.4
20210924203017 69 0.0 3.0 0.00 0.00 0.00 62 1013.3
20210924202017 69 315 1.0 3.0 0.00 0.00 0.00 62 1013.4
20210924201017 68 225 1.0 2.0 0.00 0.00 0.00 64 1013.6
20210924200017 67 0 1.0 4.0 0.00 0.00 0.00 67 1013.7
20210924195017 67 0.0 2.0 0.00 0.00 0.00 67 1013.7
20210924194017 66 0.0 2.0 0.00 0.00 0.00 70 1013.8
20210924193017 66 0.0 3.0 0.00 0.00 0.00 70 1014.0
20210924192017 65 0.0 1.0 0.00 0.00 0.00 72 1014.0
20210924191017 64 0.0 0.0 0.00 0.00 0.00 76 1014.0
20210924190018 64 0.0 2.0 0.00 0.00 0.00 77 1014.3
20210924185017 63 225 1.0 4.0 0.00 0.00 0.00 77 1014.4
20210924184017 62 0.0 2.0 0.00 0.00 0.00 79 1014.6
20210924183017 62 0.0 3.0 0.00 0.00 0.00 79 1014.7
20210924182017 61 0.0 1.0 0.00 0.00 0.00 81 1014.9
20210924181017 61 0.0 1.0 0.00 0.00 0.00 83 1014.9
20210924180017 60 0.0 2.0 0.00 0.00 0.00 82 1015.0
20210924175017 60 0.0 3.0 0.00 0.00 0.00 83 1015.2
20210924174016 59 0.0 2.0 0.00 0.00 0.00 85 1015.5
20210924173018 59 0.0 3.0 0.00 0.00 0.00 87 1015.7
20210924172016 58 0.0 2.0 0.00 0.00 0.00 87 1015.8
20210924171017 58 0.0 2.0 0.00 0.00 0.00 88 1015.8
20210924170018 57 0.0 3.0 0.00 0.00 0.00 89 1015.7
20210924165017 57 0.0 3.0 0.00 0.00 0.00 91 1015.7
20210924164017 57 0.0 1.0 0.00 0.00 0.00 91 1015.8
20210924163016 56 248 1.0 5.0 0.00 0.00 0.00 91 1015.8
20210924162016 56 0.0 1.0 0.00 0.00 0.00 92 1015.7
20210924161016 56 0.0 1.0 0.00 0.00 0.00 93 1015.6
20210924160017 55 0.0 2.0 0.00 0.00 0.00 93 1015.5
20210924155016 55 0.0 2.0 0.00 0.00 0.00 93 1015.7
20210924154017 55 0.0 2.0 0.00 0.00 0.00 94 1015.6
20210924153016 55 0.0 1.0 0.00 0.00 0.00 95 1015.7
20210924152016 54 0.0 2.0 0.00 0.00 0.00 96 1015.6
20210924151016 54 0.0 1.0 0.00 0.00 0.00 96 1015.7
20210924150017 54 0.0 2.0 0.00 0.00 0.00 96 1015.7
20210924145016 53 0.0 1.0 0.00 0.00 0.00 97 1015.7
20210924144016 53 0.0 0.0 0.00 0.00 0.00 97 1015.9
20210924143016 53 0.0 0.0 0.00 0.00 0.00 97 1015.8
20210924142016 53 0.0 0.0 0.00 0.00 0.00 97 1015.8
20210924141017 53 0.0 1.0 0.00 0.00 0.00 97 1015.9
20210924140016 52 0.0 0.0 0.00 0.00 0.00 96 1015.8
20210924135016 53 0.0 0.0 0.00 0.00 0.00 96 1016.0
20210924134016 53 0.0 0.0 0.00 0.00 0.00 95 1016.2
20210924133016 53 0.0 0.0 0.00 0.00 0.00 95 1016.2
20210924132016 53 0.0 0.0 0.00 0.00 0.00 95 1016.1
20210924131016 53 0.0 1.0 0.00 0.00 0.00 95 1016.1
20210924130016 54 0.0 0.0 0.00 0.00 0.00 95 1016.2
20210924125016 54 0.0 1.0 0.00 0.00 0.00 95 1016.2
20210924124016 54 0.0 0.0 0.00 0.00 0.00 96 1016.3
20210924123016 53 0.0 0.0 0.00 0.00 0.00 95 1016.3
20210924122017 54 0.0 0.0 0.00 0.00 0.00 95 1016.4
20210924121016 54 0.0 0.0 0.00 0.00 0.00 95 1016.5